sensor_id;sensor_type;location;lat;lon;timestamp;pressure;altitude;pressure_sealevel;temperature;humidity
67931;BME280;54726;52.000;5.954;2022-09-27T00:00:14;99221.53;;;8.71;100.00
67931;BME280;54726;52.000;5.954;2022-09-27T00:01:15;99232.88;;;8.73;100.00
67931;BME280;54726;52.000;5.954;2022-09-27T00:02:16;99234.66;;;8.72;100.00
67931;BME280;54726;52.000;5.954;2022-09-27T00:03:16;99233.72;;;8.73;100.00
67931;BME280;54726;52.000;5.954;2022-09-27T00:04:17;99235.63;;;8.71;100.00
67931;BME280;54726;52.000;5.954;2022-09-27T00:05:17;99234.00;;;8.69;100.00
67931;BME280;54726;52.000;5.954;2022-09-27T00:06:22;99236.53;;;8.70;100.00
67931;BME280;54726;52.000;5.954;2022-09-27T00:07:24;99240.03;;;8.71;100.00
67931;BME280;54726;52.000;5.954;2022-09-27T00:08:24;99247.09;;;8.70;100.00
67931;BME280;54726;52.000;5.954;2022-09-27T00:09:25;99247.09;;;8.70;100.00
67931;BME280;54726;52.000;5.954;2022-09-27T00:10:25;99239.28;;;8.69;100.00
67931;BME280;54726;52.000;5.954;2022-09-27T00:11:28;99248.06;;;8.69;100.00
67931;BME280;54726;52.000;5.954;2022-09-27T00:12:29;99242.78;;;8.69;100.00
67931;BME280;54726;52.000;5.954;2022-09-27T00:13:30;99240.97;;;8.70;100.00
67931;BME280;54726;52.000;5.954;2022-09-27T00:14:30;99237.56;;;8.68;100.00
67931;BME280;54726;52.000;5.954;2022-09-27T00:15:31;99248.13;;;8.68;100.00
67931;BME280;54726;52.000;5.954;2022-09-27T00:16:33;99245.50;;;8.68;100.00
67931;BME280;54726;52.000;5.954;2022-09-27T00:17:34;99257.03;;;8.67;100.00
67931;BME280;54726;52.000;5.954;2022-09-27T00:18:35;99239.91;;;8.58;100.00
67931;BME280;54726;52.000;5.954;2022-09-27T00:19:35;99245.84;;;8.62;100.00
67931;BME280;54726;52.000;5.954;2022-09-27T00:20:36;99255.41;;;8.64;100.00
67931;BME280;54726;52.000;5.954;2022-09-27T00:21:36;99258.16;;;8.63;100.00
67931;BME280;54726;52.000;5.954;2022-09-27T00:22:38;99259.00;;;8.63;100.00
67931;BME280;54726;52.000;5.954;2022-09-27T00:23:39;99254.63;;;8.62;100.00
67931;BME280;54726;52.000;5.954;2022-09-27T00:24:40;99255.59;;;8.61;100.00
67931;BME280;54726;52.000;5.954;2022-09-27T00:25:40;99257.56;;;8.58;100.00
67931;BME280;54726;52.000;5.954;2022-09-27T00:26:41;99260.28;;;8.56;100.00
67931;BME280;54726;52.000;5.954;2022-09-27T00:27:42;99262.00;;;8.57;100.00
67931;BME280;54726;52.000;5.954;2022-09-27T00:28:42;99255.94;;;8.55;100.00
67931;BME280;54726;52.000;5.954;2022-09-27T00:29:43;99268.22;;;8.56;100.00
67931;BME280;54726;52.000;5.954;2022-09-27T00:30:44;99265.56;;;8.56;100.00
67931;BME280;54726;52.000;5.954;2022-09-27T00:31:44;99259.44;;;8.56;100.00
67931;BME280;54726;52.000;5.954;2022-09-27T00:32:45;99263.88;;;8.55;100.00
67931;BME280;54726;52.000;5.954;2022-09-27T00:33:46;99249.28;;;8.48;100.00
67931;BME280;54726;52.000;5.954;2022-09-27T00:34:46;99258.00;;;8.50;100.00
67931;BME280;54726;52.000;5.954;2022-09-27T00:35:47;99263.09;;;8.53;100.00
67931;BME280;54726;52.000;5.954;2022-09-27T00:36:48;99269.34;;;8.52;100.00
67931;BME280;54726;52.000;5.954;2022-09-27T00:37:49;99271.13;;;8.51;100.00
67931;BME280;54726;52.000;5.954;2022-09-27T00:38:50;99260.63;;;8.50;100.00
67931;BME280;54726;52.000;5.954;2022-09-27T00:39:51;99272.91;;;8.51;100.00
67931;BME280;54726;52.000;5.954;2022-09-27T00:40:51;99265.06;;;8.49;100.00
67931;BME280;54726;52.000;5.954;2022-09-27T00:41:52;99277.25;;;8.52;100.00
67931;BME280;54726;52.000;5.954;2022-09-27T00:42:52;99261.00;;;8.44;100.00
67931;BME280;54726;52.000;5.954;2022-09-27T00:43:54;99271.22;;;8.50;100.00
67931;BME280;54726;52.000;5.954;2022-09-27T00:45:02;99271.22;;;8.50;100.00
67931;BME280;54726;52.000;5.954;2022-09-27T00:46:03;99270.44;;;8.48;100.00
67931;BME280;54726;52.000;5.954;2022-09-27T00:47:08;99268.75;;;8.47;100.00
67931;BME280;54726;52.000;5.954;2022-09-27T00:48:14;99273.94;;;8.48;100.00
67931;BME280;54726;52.000;5.954;2022-09-27T00:49:18;99273.09;;;8.48;100.00
67931;BME280;54726;52.000;5.954;2022-09-27T00:50:25;99269.69;;;8.46;100.00
67931;BME280;54726;52.000;5.954;2022-09-27T00:51:27;99275.81;;;8.46;100.00
67931;BME280;54726;52.000;5.954;2022-09-27T00:52:33;99270.53;;;8.46;100.00
67931;BME280;54726;52.000;5.954;2022-09-27T00:53:39;99267.97;;;8.45;100.00
67931;BME280;54726;52.000;5.954;2022-09-27T00:54:43;99279.31;;;8.47;100.00
67931;BME280;54726;52.000;5.954;2022-09-27T00:55:48;99274.97;;;8.46;100.00
67931;BME280;54726;52.000;5.954;2022-09-27T00:56:51;99277.53;;;8.47;100.00
67931;BME280;54726;52.000;5.954;2022-09-27T00:57:52;99262.69;;;8.45;100.00
67931;BME280;54726;52.000;5.954;2022-09-27T00:58:58;99265.25;;;8.46;100.00
67931;BME280;54726;52.000;5.954;2022-09-27T01:00:02;99263.47;;;8.47;100.00
67931;BME280;54726;52.000;5.954;2022-09-27T01:01:06;99274.88;;;8.47;100.00
67931;BME280;54726;52.000;5.954;2022-09-27T01:02:08;99273.19;;;8.46;100.00
67931;BME280;54726;52.000;5.954;2022-09-27T01:03:12;99275.81;;;8.46;100.00
67931;BME280;54726;52.000;5.954;2022-09-27T01:04:17;99274.03;;;8.47;100.00
67931;BME280;54726;52.000;5.954;2022-09-27T01:05:21;99270.53;;;8.46;100.00
67931;BME280;54726;52.000;5.954;2022-09-27T01:06:22;99269.59;;;8.47;100.00
67931;BME280;54726;52.000;5.954;2022-09-27T01:07:23;99268.75;;;8.47;100.00
67931;BME280;54726;52.000;5.954;2022-09-27T01:08:23;99271.38;;;8.47;100.00
67931;BME280;54726;52.000;5.954;2022-09-27T01:09:26;99279.31;;;8.47;100.00
67931;BME280;54726;52.000;5.954;2022-09-27T01:10:31;99280.25;;;8.46;100.00
67931;BME280;54726;52.000;5.954;2022-09-27T01:11:40;99282.91;;;8.46;100.00
67931;BME280;54726;52.000;5.954;2022-09-27T01:12:49;99289.97;;;8.45;100.00
67931;BME280;54726;52.000;5.954;2022-09-27T01:14:10;99298.00;;;8.44;100.00
67931;BME280;54726;52.000;5.954;2022-09-27T01:15:22;99301.66;;;8.41;100.00
67931;BME280;54726;52.000;5.954;2022-09-27T01:16:32;99300.81;;;8.41;100.00
67931;BME280;54726;52.000;5.954;2022-09-27T01:17:43;99300.81;;;8.41;100.00
67931;BME280;54726;52.000;5.954;2022-09-27T01:18:55;99298.25;;;8.39;100.00
67931;BME280;54726;52.000;5.954;2022-09-27T01:20:27;99301.72;;;8.40;100.00
67931;BME280;54726;52.000;5.954;2022-09-27T01:21:43;99300.69;;;8.42;100.00
67931;BME280;54726;52.000;5.954;2022-09-27T01:22:54;99303.44;;;8.41;100.00
67931;BME280;54726;52.000;5.954;2022-09-27T01:24:12;99303.28;;;8.44;100.00
67931;BME280;54726;52.000;5.954;2022-09-27T01:25:35;99301.47;;;8.44;100.00
67931;BME280;54726;52.000;5.954;2022-09-27T01:28:19;99303.28;;;8.44;100.00
67931;BME280;54726;52.000;5.954;2022-09-27T01:29:27;99292.69;;;8.44;100.00
67931;BME280;54726;52.000;5.954;2022-09-27T01:30:39;99287.41;;;8.44;100.00
67931;BME280;54726;52.000;5.954;2022-09-27T01:31:45;99296.19;;;8.44;100.00
67931;BME280;54726;52.000;5.954;2022-09-27T01:33:00;99305.13;;;8.42;100.00
67931;BME280;54726;52.000;5.954;2022-09-27T01:34:06;99304.38;;;8.40;100.00
67931;BME280;54726;52.000;5.954;2022-09-27T01:35:14;99306.16;;;8.39;100.00
67931;BME280;54726;52.000;5.954;2022-09-27T01:36:23;99306.09;;;8.41;100.00
67931;BME280;54726;52.000;5.954;2022-09-27T01:37:34;99300.88;;;8.39;100.00
67931;BME280;54726;52.000;5.954;2022-09-27T01:38:46;99294.97;;;8.34;100.00
67931;BME280;54726;52.000;5.954;2022-09-27T01:39:58;99299.41;;;8.34;100.00
67931;BME280;54726;52.000;5.954;2022-09-27T01:41:03;99306.41;;;8.35;100.00
67931;BME280;54726;52.000;5.954;2022-09-27T01:42:10;99301.19;;;8.33;100.00
67931;BME280;54726;52.000;5.954;2022-09-27T01:43:14;99299.41;;;8.34;100.00
67931;BME280;54726;52.000;5.954;2022-09-27T01:44:22;99305.63;;;8.33;100.00
67931;BME280;54726;52.000;5.954;2022-09-27T01:45:26;99309.97;;;8.34;100.00
67931;BME280;54726;52.000;5.954;2022-09-27T01:46:35;99299.69;;;8.29;100.00
67931;BME280;54726;52.000;5.954;2022-09-27T01:47:40;99304.19;;;8.27;100.00
67931;BME280;54726;52.000;5.954;2022-09-27T01:48:43;99302.47;;;8.26;100.00
67931;BME280;54726;52.000;5.954;2022-09-27T01:49:53;99301.63;;;8.25;100.00
67931;BME280;54726;52.000;5.954;2022-09-27T01:50:58;99297.28;;;8.24;100.00
67931;BME280;54726;52.000;5.954;2022-09-27T01:52:01;99297.19;;;8.26;100.00
67931;BME280;54726;52.000;5.954;2022-09-27T01:53:08;99304.25;;;8.25;100.00
67931;BME280;54726;52.000;5.954;2022-09-27T01:54:14;99301.63;;;8.25;100.00
67931;BME280;54726;52.000;5.954;2022-09-27T01:55:18;99299.16;;;8.22;100.00
67931;BME280;54726;52.000;5.954;2022-09-27T01:56:23;99300.00;;;8.23;100.00
67931;BME280;54726;52.000;5.954;2022-09-27T01:57:30;99301.91;;;8.21;100.00
67931;BME280;54726;52.000;5.954;2022-09-27T01:58:36;99296.63;;;8.21;100.00
67931;BME280;54726;52.000;5.954;2022-09-27T01:59:44;99301.97;;;8.19;100.00
67931;BME280;54726;52.000;5.954;2022-09-27T02:00:47;99295.06;;;8.17;100.00
67931;BME280;54726;52.000;5.954;2022-09-27T02:01:51;99299.56;;;8.15;100.00
67931;BME280;54726;52.000;5.954;2022-09-27T02:02:55;99299.66;;;8.13;100.00
67931;BME280;54726;52.000;5.954;2022-09-27T02:03:58;99293.53;;;8.13;100.00
67931;BME280;54726;52.000;5.954;2022-09-27T02:05:02;99299.84;;;8.10;100.00
67931;BME280;54726;52.000;5.954;2022-09-27T02:06:09;99290.19;;;8.09;100.00
67931;BME280;54726;52.000;5.954;2022-09-27T02:07:15;99290.38;;;8.06;100.00
67931;BME280;54726;52.000;5.954;2022-09-27T02:08:21;99299.13;;;8.06;100.00
67931;BME280;54726;52.000;5.954;2022-09-27T02:09:28;99298.28;;;8.06;100.00
67931;BME280;54726;52.000;5.954;2022-09-27T02:10:33;99292.34;;;8.02;100.00
67931;BME280;54726;52.000;5.954;2022-09-27T02:11:40;99297.78;;;7.99;100.00
67931;BME280;54726;52.000;5.954;2022-09-27T02:12:46;99297.84;;;7.98;100.00
67931;BME280;54726;52.000;5.954;2022-09-27T02:13:52;99291.72;;;7.97;100.00
67931;BME280;54726;52.000;5.954;2022-09-27T02:14:56;99290.09;;;7.95;100.00
67931;BME280;54726;52.000;5.954;2022-09-27T02:16:03;99288.50;;;7.92;100.00
67931;BME280;54726;52.000;5.954;2022-09-27T02:17:18;99292.16;;;7.90;100.00
67931;BME280;54726;52.000;5.954;2022-09-27T02:18:27;99287.91;;;7.87;100.00
67931;BME280;54726;52.000;5.954;2022-09-27T02:19:35;99292.31;;;7.87;100.00
67931;BME280;54726;52.000;5.954;2022-09-27T02:20:39;99288.81;;;7.86;100.00
67931;BME280;54726;52.000;5.954;2022-09-27T02:21:44;99295.84;;;7.87;100.00
67931;BME280;54726;52.000;5.954;2022-09-27T02:22:55;99291.47;;;7.86;100.00
67931;BME280;54726;52.000;5.954;2022-09-27T02:24:00;99289.84;;;7.83;100.00
67931;BME280;54726;52.000;5.954;2022-09-27T02:25:10;99304.00;;;7.82;100.00
67931;BME280;54726;52.000;5.954;2022-09-27T02:26:15;99297.94;;;7.80;100.00
67931;BME280;54726;52.000;5.954;2022-09-27T02:27:22;99295.63;;;7.74;100.00
67931;BME280;54726;52.000;5.954;2022-09-27T02:28:27;99299.22;;;7.73;100.00
67931;BME280;54726;52.000;5.954;2022-09-27T02:29:33;99290.69;;;7.68;100.00
67931;BME280;54726;52.000;5.954;2022-09-27T02:30:38;99298.44;;;7.71;100.00
67931;BME280;54726;52.000;5.954;2022-09-27T02:31:39;99295.88;;;7.70;100.00
67931;BME280;54726;52.000;5.954;2022-09-27T02:32:41;99302.16;;;7.67;100.00
67931;BME280;54726;52.000;5.954;2022-09-27T02:33:44;99300.41;;;7.68;100.00
67931;BME280;54726;52.000;5.954;2022-09-27T02:34:47;99298.59;;;7.68;100.00
67931;BME280;54726;52.000;5.954;2022-09-27T02:35:49;99291.47;;;7.70;100.00
67931;BME280;54726;52.000;5.954;2022-09-27T02:36:50;99296.75;;;7.70;100.00
67931;BME280;54726;52.000;5.954;2022-09-27T02:37:51;99292.38;;;7.69;100.00
67931;BME280;54726;52.000;5.954;2022-09-27T02:38:51;99295.03;;;7.69;100.00
67931;BME280;54726;52.000;5.954;2022-09-27T02:39:51;99293.31;;;7.68;100.00
67931;BME280;54726;52.000;5.954;2022-09-27T02:40:52;99295.03;;;7.69;100.00
67931;BME280;54726;52.000;5.954;2022-09-27T02:41:52;99290.69;;;7.68;100.00
67931;BME280;54726;52.000;5.954;2022-09-27T02:42:53;99293.31;;;7.68;100.00
67931;BME280;54726;52.000;5.954;2022-09-27T02:43:55;99290.69;;;7.68;100.00
67931;BME280;54726;52.000;5.954;2022-09-27T02:44:57;99286.31;;;7.67;100.00
67931;BME280;54726;52.000;5.954;2022-09-27T02:46:09;99278.00;;;7.59;100.00
67931;BME280;54726;52.000;5.954;2022-09-27T02:49:02;99284.63;;;7.66;100.00
67931;BME280;54726;52.000;5.954;2022-09-27T02:50:28;99291.03;;;7.62;100.00
67931;BME280;54726;52.000;5.954;2022-09-27T02:51:40;99275.19;;;7.62;100.00
67931;BME280;54726;52.000;5.954;2022-09-27T02:52:49;99274.41;;;7.60;100.00
67931;BME280;54726;52.000;5.954;2022-09-27T02:54:05;99278.75;;;7.61;100.00
67931;BME280;54726;52.000;5.954;2022-09-27T02:55:15;99290.06;;;7.63;100.00
67931;BME280;54726;52.000;5.954;2022-09-27T02:56:23;99279.53;;;7.63;100.00
67931;BME280;54726;52.000;5.954;2022-09-27T02:57:33;99283.94;;;7.62;100.00
67931;BME280;54726;52.000;5.954;2022-09-27T02:58:46;99283.19;;;7.60;100.00
67931;BME280;54726;52.000;5.954;2022-09-27T02:59:52;99285.91;;;7.59;100.00
67931;BME280;54726;52.000;5.954;2022-09-27T03:01:01;99283.28;;;7.59;100.00
67931;BME280;54726;52.000;5.954;2022-09-27T03:02:09;99280.63;;;7.59;100.00
67931;BME280;54726;52.000;5.954;2022-09-27T03:03:15;99276.09;;;7.61;100.00
67931;BME280;54726;52.000;5.954;2022-09-27T03:04:22;99282.22;;;7.61;100.00
67931;BME280;54726;52.000;5.954;2022-09-27T03:05:28;99276.19;;;7.59;100.00
67931;BME280;54726;52.000;5.954;2022-09-27T03:06:32;99281.47;;;7.59;100.00
67931;BME280;54726;52.000;5.954;2022-09-27T03:07:34;99284.13;;;7.59;100.00
67931;BME280;54726;52.000;5.954;2022-09-27T03:08:36;99279.69;;;7.60;100.00
67931;BME280;54726;52.000;5.954;2022-09-27T03:09:42;99281.47;;;7.59;100.00
67931;BME280;54726;52.000;5.954;2022-09-27T03:10:43;99284.97;;;7.60;100.00
67931;BME280;54726;52.000;5.954;2022-09-27T03:11:44;99288.56;;;7.59;100.00
67931;BME280;54726;52.000;5.954;2022-09-27T03:12:44;99283.41;;;7.56;100.00
67931;BME280;54726;52.000;5.954;2022-09-27T03:13:45;99279.06;;;7.55;100.00
67931;BME280;54726;52.000;5.954;2022-09-27T03:14:45;99290.41;;;7.57;100.00
67931;BME280;54726;52.000;5.954;2022-09-27T03:15:46;99289.56;;;7.56;100.00
67931;BME280;54726;52.000;5.954;2022-09-27T03:16:46;99287.00;;;7.55;100.00
67931;BME280;54726;52.000;5.954;2022-09-27T03:17:46;99287.00;;;7.55;100.00
67931;BME280;54726;52.000;5.954;2022-09-27T03:18:47;99276.59;;;7.52;100.00
67931;BME280;54726;52.000;5.954;2022-09-27T03:19:49;99294.06;;;7.54;100.00
67931;BME280;54726;52.000;5.954;2022-09-27T03:20:51;99287.84;;;7.55;100.00
67931;BME280;54726;52.000;5.954;2022-09-27T03:21:51;99290.47;;;7.55;100.00
67931;BME280;54726;52.000;5.954;2022-09-27T03:22:52;99287.94;;;7.54;100.00
67931;BME280;54726;52.000;5.954;2022-09-27T03:23:52;99293.22;;;7.54;100.00
67931;BME280;54726;52.000;5.954;2022-09-27T03:24:53;99293.28;;;7.52;100.00
67931;BME280;54726;52.000;5.954;2022-09-27T03:25:53;99285.38;;;7.52;100.00
67931;BME280;54726;52.000;5.954;2022-09-27T03:26:53;99290.63;;;7.52;100.00
67931;BME280;54726;52.000;5.954;2022-09-27T03:27:54;99293.22;;;7.54;100.00
67931;BME280;54726;52.000;5.954;2022-09-27T03:28:54;99287.16;;;7.52;100.00
67931;BME280;54726;52.000;5.954;2022-09-27T03:29:55;99279.41;;;7.49;100.00
67931;BME280;54726;52.000;5.954;2022-09-27T03:30:55;99291.41;;;7.54;100.00
67931;BME280;54726;52.000;5.954;2022-09-27T03:31:56;99285.31;;;7.54;100.00
67931;BME280;54726;52.000;5.954;2022-09-27T03:32:56;99288.84;;;7.53;100.00
67931;BME280;54726;52.000;5.954;2022-09-27T03:33:56;99288.84;;;7.53;100.00
67931;BME280;54726;52.000;5.954;2022-09-27T03:34:58;99295.84;;;7.54;100.00
67931;BME280;54726;52.000;5.954;2022-09-27T03:35:59;99290.63;;;7.52;100.00
67931;BME280;54726;52.000;5.954;2022-09-27T03:36:59;99293.28;;;7.52;100.00
67931;BME280;54726;52.000;5.954;2022-09-27T03:38:00;99286.38;;;7.50;100.00
67931;BME280;54726;52.000;5.954;2022-09-27T03:39:00;99294.13;;;7.53;100.00
67931;BME280;54726;52.000;5.954;2022-09-27T03:40:01;99292.44;;;7.52;100.00
67931;BME280;54726;52.000;5.954;2022-09-27T03:41:01;99290.63;;;7.52;100.00
67931;BME280;54726;52.000;5.954;2022-09-27T03:42:02;99290.56;;;7.54;100.00
67931;BME280;54726;52.000;5.954;2022-09-27T03:43:03;99294.06;;;7.54;100.00
67931;BME280;54726;52.000;5.954;2022-09-27T03:44:03;99297.63;;;7.53;100.00
67931;BME280;54726;52.000;5.954;2022-09-27T03:45:04;99294.97;;;7.53;100.00
67931;BME280;54726;52.000;5.954;2022-09-27T03:46:05;99292.44;;;7.52;100.00
67931;BME280;54726;52.000;5.954;2022-09-27T03:47:05;99297.72;;;7.52;100.00
67931;BME280;54726;52.000;5.954;2022-09-27T03:48:06;99295.25;;;7.49;100.00
67931;BME280;54726;52.000;5.954;2022-09-27T03:49:06;99292.44;;;7.52;100.00
67931;BME280;54726;52.000;5.954;2022-09-27T03:50:09;99292.50;;;7.50;100.00
67931;BME280;54726;52.000;5.954;2022-09-27T03:51:10;99296.03;;;7.51;100.00
67931;BME280;54726;52.000;5.954;2022-09-27T03:52:11;99301.28;;;7.51;100.00
67931;BME280;54726;52.000;5.954;2022-09-27T03:53:11;99300.41;;;7.50;100.00
67931;BME280;54726;52.000;5.954;2022-09-27T03:54:12;99299.56;;;7.50;100.00
67931;BME280;54726;52.000;5.954;2022-09-27T03:55:12;99306.56;;;7.51;100.00
67931;BME280;54726;52.000;5.954;2022-09-27T03:56:13;99303.06;;;7.50;100.00
67931;BME280;54726;52.000;5.954;2022-09-27T03:57:13;99303.16;;;7.49;100.00
67931;BME280;54726;52.000;5.954;2022-09-27T03:58:14;99303.16;;;7.49;100.00
67931;BME280;54726;52.000;5.954;2022-09-27T03:59:14;99301.44;;;7.48;100.00
67931;BME280;54726;52.000;5.954;2022-09-27T04:00:15;99296.31;;;7.45;100.00
67931;BME280;54726;52.000;5.954;2022-09-27T04:01:15;99296.31;;;7.45;100.00
67931;BME280;54726;52.000;5.954;2022-09-27T04:02:16;99294.63;;;7.44;100.00
67931;BME280;54726;52.000;5.954;2022-09-27T04:03:16;99292.06;;;7.42;100.00
67931;BME280;54726;52.000;5.954;2022-09-27T04:04:17;99304.31;;;7.43;100.00
67931;BME280;54726;52.000;5.954;2022-09-27T04:05:18;99301.69;;;7.43;100.00
67931;BME280;54726;52.000;5.954;2022-09-27T04:06:19;99301.75;;;7.42;100.00
67931;BME280;54726;52.000;5.954;2022-09-27T04:07:19;99296.66;;;7.38;100.00
67931;BME280;54726;52.000;5.954;2022-09-27T04:08:20;99307.03;;;7.42;100.00
67931;BME280;54726;52.000;5.954;2022-09-27T04:09:21;99307.88;;;7.42;100.00
67931;BME280;54726;52.000;5.954;2022-09-27T04:10:21;99303.47;;;7.43;100.00
67931;BME280;54726;52.000;5.954;2022-09-27T04:11:22;99303.47;;;7.43;100.00
67931;BME280;54726;52.000;5.954;2022-09-27T04:12:22;99310.63;;;7.40;100.00
67931;BME280;54726;52.000;5.954;2022-09-27T04:13:23;99302.59;;;7.42;100.00
67931;BME280;54726;52.000;5.954;2022-09-27T04:14:23;99306.13;;;7.43;100.00
67931;BME280;54726;52.000;5.954;2022-09-27T04:15:24;99308.75;;;7.43;100.00
67931;BME280;54726;52.000;5.954;2022-09-27T04:16:24;99305.25;;;7.42;100.00
67931;BME280;54726;52.000;5.954;2022-09-27T04:17:25;99301.00;;;7.39;100.00
67931;BME280;54726;52.000;5.954;2022-09-27T04:18:25;99302.69;;;7.40;100.00
67931;BME280;54726;52.000;5.954;2022-09-27T04:19:25;99300.91;;;7.41;100.00
67931;BME280;54726;52.000;5.954;2022-09-27T04:20:27;99297.25;;;7.44;100.00
67931;BME280;54726;52.000;5.954;2022-09-27T04:21:28;99301.59;;;7.45;100.00
67931;BME280;54726;52.000;5.954;2022-09-27T04:22:28;99301.59;;;7.45;100.00
67931;BME280;54726;52.000;5.954;2022-09-27T04:23:29;99312.13;;;7.45;100.00
67931;BME280;54726;52.000;5.954;2022-09-27T04:24:29;99314.72;;;7.46;100.00
67931;BME280;54726;52.000;5.954;2022-09-27T04:25:29;99311.97;;;7.48;100.00
67931;BME280;54726;52.000;5.954;2022-09-27T04:26:30;99317.19;;;7.49;100.00
67931;BME280;54726;52.000;5.954;2022-09-27T04:27:30;99312.75;;;7.50;100.00
67931;BME280;54726;52.000;5.954;2022-09-27T04:28:31;99302.22;;;7.50;100.00
67931;BME280;54726;52.000;5.954;2022-09-27T04:29:31;99304.84;;;7.50;100.00
67931;BME280;54726;52.000;5.954;2022-09-27T04:30:32;99301.28;;;7.51;100.00
67931;BME280;54726;52.000;5.954;2022-09-27T04:31:32;99313.53;;;7.52;100.00
67931;BME280;54726;52.000;5.954;2022-09-27T04:32:32;99304.84;;;7.50;100.00
67931;BME280;54726;52.000;5.954;2022-09-27T04:33:33;99303.94;;;7.51;100.00
67931;BME280;54726;52.000;5.954;2022-09-27T04:34:33;99299.56;;;7.50;100.00
67931;BME280;54726;52.000;5.954;2022-09-27T04:35:35;99305.63;;;7.52;100.00
67931;BME280;54726;52.000;5.954;2022-09-27T04:36:36;99300.34;;;7.52;100.00
67931;BME280;54726;52.000;5.954;2022-09-27T04:37:36;99303.84;;;7.52;100.00
67931;BME280;54726;52.000;5.954;2022-09-27T04:38:37;99299.41;;;7.53;100.00
67931;BME280;54726;52.000;5.954;2022-09-27T04:39:37;99300.25;;;7.53;100.00
67931;BME280;54726;52.000;5.954;2022-09-27T04:40:37;99302.88;;;7.53;100.00
67931;BME280;54726;52.000;5.954;2022-09-27T04:41:38;99301.19;;;7.52;100.00
67931;BME280;54726;52.000;5.954;2022-09-27T04:42:38;99302.13;;;7.51;100.00
67931;BME280;54726;52.000;5.954;2022-09-27T04:43:39;99304.69;;;7.53;100.00
67931;BME280;54726;52.000;5.954;2022-09-27T04:44:39;99299.50;;;7.51;100.00
67931;BME280;54726;52.000;5.954;2022-09-27T04:45:39;99306.56;;;7.51;100.00
67931;BME280;54726;52.000;5.954;2022-09-27T04:46:40;99296.16;;;7.48;100.00
67931;BME280;54726;52.000;5.954;2022-09-27T04:47:41;99303.84;;;7.52;100.00
67931;BME280;54726;52.000;5.954;2022-09-27T04:48:42;99308.25;;;7.52;100.00
67931;BME280;54726;52.000;5.954;2022-09-27T04:49:42;99306.47;;;7.52;100.00
67931;BME280;54726;52.000;5.954;2022-09-27T04:50:44;99297.72;;;7.52;100.00
67931;BME280;54726;52.000;5.954;2022-09-27T04:51:44;99303.06;;;7.50;100.00
67931;BME280;54726;52.000;5.954;2022-09-27T04:52:49;99309.09;;;7.52;100.00
67931;BME280;54726;52.000;5.954;2022-09-27T04:53:49;99304.78;;;7.51;100.00
67931;BME280;54726;52.000;5.954;2022-09-27T04:54:50;99302.22;;;7.50;100.00
67931;BME280;54726;52.000;5.954;2022-09-27T04:55:52;99309.28;;;7.49;100.00
67931;BME280;54726;52.000;5.954;2022-09-27T04:56:52;99305.84;;;7.47;100.00
67931;BME280;54726;52.000;5.954;2022-09-27T04:57:53;99302.38;;;7.47;100.00
67931;BME280;54726;52.000;5.954;2022-09-27T04:58:53;99298.94;;;7.45;100.00
67931;BME280;54726;52.000;5.954;2022-09-27T04:59:54;99309.44;;;7.46;100.00
67931;BME280;54726;52.000;5.954;2022-09-27T05:00:54;99305.09;;;7.45;100.00
67931;BME280;54726;52.000;5.954;2022-09-27T05:01:55;99298.38;;;7.39;100.00
67931;BME280;54726;52.000;5.954;2022-09-27T05:02:55;99299.91;;;7.44;100.00
67931;BME280;54726;52.000;5.954;2022-09-27T05:03:56;99311.28;;;7.44;100.00
67931;BME280;54726;52.000;5.954;2022-09-27T05:04:56;99311.41;;;7.43;100.00
67931;BME280;54726;52.000;5.954;2022-09-27T05:05:58;99310.50;;;7.42;100.00
67931;BME280;54726;52.000;5.954;2022-09-27T05:06:59;99304.50;;;7.40;100.00
67931;BME280;54726;52.000;5.954;2022-09-27T05:08:00;99306.19;;;7.41;100.00
67931;BME280;54726;52.000;5.954;2022-09-27T05:09:00;99308.81;;;7.41;100.00
67931;BME280;54726;52.000;5.954;2022-09-27T05:10:00;99303.66;;;7.39;100.00
67931;BME280;54726;52.000;5.954;2022-09-27T05:11:01;99317.75;;;7.38;100.00
67931;BME280;54726;52.000;5.954;2022-09-27T05:12:03;99316.97;;;7.36;100.00
67931;BME280;54726;52.000;5.954;2022-09-27T05:13:03;99313.47;;;7.36;100.00
67931;BME280;54726;52.000;5.954;2022-09-27T05:14:04;99318.69;;;7.37;100.00
67931;BME280;54726;52.000;5.954;2022-09-27T05:15:06;99324.88;;;7.36;100.00
67931;BME280;54726;52.000;5.954;2022-09-27T05:16:07;99305.66;;;7.34;100.00
67931;BME280;54726;52.000;5.954;2022-09-27T05:17:07;99307.53;;;7.32;100.00
67931;BME280;54726;52.000;5.954;2022-09-27T05:18:08;99316.06;;;7.37;100.00
67931;BME280;54726;52.000;5.954;2022-09-27T05:19:08;99328.22;;;7.40;100.00
67931;BME280;54726;52.000;5.954;2022-09-27T05:20:09;99319.47;;;7.39;100.00
67931;BME280;54726;52.000;5.954;2022-09-27T05:21:11;99313.31;;;7.39;100.00
67931;BME280;54726;52.000;5.954;2022-09-27T05:22:11;99317.75;;;7.38;100.00
67931;BME280;54726;52.000;5.954;2022-09-27T05:23:12;99328.41;;;7.37;100.00
67931;BME280;54726;52.000;5.954;2022-09-27T05:24:12;99324.88;;;7.36;100.00
67931;BME280;54726;52.000;5.954;2022-09-27T05:25:13;99330.16;;;7.36;100.00
67931;BME280;54726;52.000;5.954;2022-09-27T05:26:13;99323.97;;;7.37;100.00
67931;BME280;54726;52.000;5.954;2022-09-27T05:27:15;99321.31;;;7.37;100.00
67931;BME280;54726;52.000;5.954;2022-09-27T05:28:16;99322.25;;;7.36;100.00
67931;BME280;54726;52.000;5.954;2022-09-27T05:29:16;99325.81;;;7.35;100.00
67931;BME280;54726;52.000;5.954;2022-09-27T05:30:17;99318.84;;;7.34;100.00
67931;BME280;54726;52.000;5.954;2022-09-27T05:31:17;99325.91;;;7.34;100.00
67931;BME280;54726;52.000;5.954;2022-09-27T05:32:18;99325.03;;;7.33;100.00
67931;BME280;54726;52.000;5.954;2022-09-27T05:33:18;99323.28;;;7.34;100.00
67931;BME280;54726;52.000;5.954;2022-09-27T05:34:19;99312.78;;;7.32;100.00
67931;BME280;54726;52.000;5.954;2022-09-27T05:35:20;99312.00;;;7.30;100.00
67931;BME280;54726;52.000;5.954;2022-09-27T05:36:22;99319.09;;;7.30;100.00
67931;BME280;54726;52.000;5.954;2022-09-27T05:37:22;99323.50;;;7.29;100.00